Time;durP1;ratioP1;P1;durP2;ratioP2;P2;SDS_P1;SDS_P2;PMS_P1;PMS_P2;Temp;Humidity;BMP_temperature;BMP_pressure;BME280_temperature;BME280_humidity;BME280_pressure;Samples;Min_cycle;Max_cycle;Signal;HPM_P1;HPM_P2
2022/05/26 00:01:12;;;;;;;3.63;1.17;;;15.30;99.90;;;;;;5035347;28;20201;-83
2022/05/26 00:03:40;;;;;;;2.90;1.10;;;15.30;99.90;;;;;;5036267;28;20169;-82
2022/05/26 00:06:08;;;;;;;2.80;1.23;;;15.30;99.90;;;;;;5037578;28;20197;-82
2022/05/26 00:08:36;;;;;;;5.77;1.40;;;15.30;99.90;;;;;;5036046;28;20174;-82
2022/05/26 00:11:05;;;;;;;1.50;1.40;;;15.20;99.90;;;;;;5035557;28;20197;-82
2022/05/26 00:13:30;;;;;;;2.57;1.53;;;15.20;99.90;;;;;;5036337;28;20181;-82
2022/05/26 00:15:56;;;;;;;2.40;1.60;;;15.30;99.90;;;;;;5034363;28;20198;-81
2022/05/26 00:18:22;;;;;;;5.67;1.80;;;15.30;99.90;;;;;;5032028;28;20171;-81
2022/05/26 00:20:48;;;;;;;6.13;1.80;;;15.30;99.90;;;;;;5031724;28;20201;-81
2022/05/26 00:23:14;;;;;;;5.90;1.90;;;15.20;99.90;;;;;;5031348;28;20176;-82
2022/05/26 00:25:39;;;;;;;4.93;1.43;;;15.20;99.90;;;;;;5031705;28;20265;-81
2022/05/26 00:28:05;;;;;;;5.33;2.03;;;15.20;99.90;;;;;;5031543;28;20176;-80
2022/05/26 00:30:32;;;;;;;4.30;1.90;;;15.30;99.90;;;;;;5031572;28;20193;-81
2022/05/26 00:32:59;;;;;;;2.97;1.90;;;15.20;99.90;;;;;;5031720;28;20182;-81
2022/05/26 00:35:26;;;;;;;5.50;2.10;;;15.20;99.90;;;;;;5031757;28;20170;-82
2022/05/26 00:37:51;;;;;;;3.77;2.17;;;15.10;99.90;;;;;;5031359;28;20293;-81
2022/05/26 00:40:18;;;;;;;5.63;1.90;;;15.20;99.90;;;;;;5031272;28;20292;-81
2022/05/26 00:42:44;;;;;;;3.80;2.10;;;15.20;99.90;;;;;;5031266;28;20187;-81
2022/05/26 00:45:11;;;;;;;4.03;2.30;;;15.20;99.90;;;;;;5031399;28;20188;-81
2022/05/26 00:47:44;;;;;;;6.40;2.07;;;15.10;99.90;;;;;;5031453;28;20170;-82
2022/05/26 00:50:29;;;;;;;2.23;1.80;;;15.10;99.90;;;;;;5031300;28;20199;-82
2022/05/26 00:52:59;;;;;;;3.07;2.00;;;15.20;99.90;;;;;;5031630;28;20177;-81
2022/05/26 00:55:36;;;;;;;4.20;2.17;;;15.10;99.90;;;;;;5032175;28;20177;-82
2022/05/26 00:58:10;;;;;;;3.53;1.80;;;15.10;99.90;;;;;;5032405;28;20255;-84
2022/05/26 01:00:38;;;;;;;2.27;1.73;;;15.20;99.90;;;;;;5031715;28;20682;-82
2022/05/26 01:03:15;;;;;;;7.03;2.30;;;15.20;99.90;;;;;;5031887;28;20658;-82
2022/05/26 01:06:04;;;;;;;5.60;2.60;;;15.20;99.90;;;;;;5033567;28;20180;-82
2022/05/26 01:08:42;;;;;;;6.10;2.37;;;15.20;99.90;;;;;;5031888;28;20170;-81
2022/05/26 01:11:08;;;;;;;4.40;2.10;;;15.20;99.90;;;;;;5032693;28;20596;-82
2022/05/26 01:13:39;;;;;;;2.67;1.90;;;15.20;99.90;;;;;;5031910;28;20174;-81
2022/05/26 01:16:13;;;;;;;4.57;2.63;;;15.20;99.90;;;;;;5033551;28;20237;-81
2022/05/26 01:19:05;;;;;;;5.93;2.20;;;15.20;99.90;;;;;;5033404;28;20238;-81
2022/05/26 01:21:40;;;;;;;4.17;2.30;;;15.10;99.90;;;;;;5030191;28;20289;-81
2022/05/26 01:24:21;;;;;;;4.20;2.07;;;15.10;99.90;;;;;;5033163;28;20230;-81
2022/05/26 01:26:58;;;;;;;7.33;2.17;;;15.10;99.90;;;;;;5033204;28;20579;-82
2022/05/26 01:30:00;;;;;;;4.53;2.07;;;15.20;99.90;;;;;;5033208;28;20178;-82
2022/05/26 01:32:49;;;;;;;6.00;2.40;;;15.20;99.90;;;;;;5032870;28;20177;-82
2022/05/26 01:35:21;;;;;;;5.40;1.97;;;15.10;99.90;;;;;;5032440;28;20177;-81
2022/05/26 01:38:26;;;;;;;7.27;3.47;;;15.10;99.90;;;;;;5037253;28;20205;-81
2022/05/26 01:41:30;;;;;;;7.00;2.20;;;15.10;99.90;;;;;;5026377;28;20273;-83
2022/05/26 01:44:15;;;;;;;3.07;2.37;;;15.10;99.90;;;;;;5036955;28;20175;-83
2022/05/26 01:46:45;;;;;;;3.97;2.20;;;15.10;99.90;;;;;;5036657;28;20185;-82
2022/05/26 01:49:24;;;;;;;6.80;3.10;;;15.10;99.90;;;;;;5036546;28;20166;-82
2022/05/26 01:51:59;;;;;;;2.43;2.20;;;15.10;99.90;;;;;;5037847;28;20192;-83
2022/05/26 01:54:31;;;;;;;6.10;2.80;;;15.00;99.90;;;;;;5037393;28;20199;-84
2022/05/26 01:56:57;;;;;;;5.23;2.90;;;15.00;99.90;;;;;;5039497;28;20292;-84
2022/05/26 01:59:34;;;;;;;4.50;2.43;;;15.00;99.90;;;;;;5040277;28;20468;-82
2022/05/26 02:02:05;;;;;;;3.53;2.47;;;15.10;99.90;;;;;;5039149;28;20182;-82
2022/05/26 02:04:38;;;;;;;5.97;2.63;;;15.00;99.90;;;;;;5040630;28;20159;-83
2022/05/26 02:07:18;;;;;;;4.50;2.80;;;15.10;99.90;;;;;;5039164;28;20191;-83
2022/05/26 02:09:45;;;;;;;4.80;2.73;;;15.00;99.90;;;;;;5039471;28;20232;-82
2022/05/26 02:12:25;;;;;;;5.10;2.63;;;15.00;99.90;;;;;;5039194;28;20198;-82
2022/05/26 02:14:58;;;;;;;7.47;3.40;;;15.00;99.90;;;;;;5040002;28;20272;-83
2022/05/26 02:17:31;;;;;;;7.47;3.30;;;15.00;99.90;;;;;;5037384;28;20713;-82
2022/05/26 02:20:09;;;;;;;4.53;3.47;;;15.00;99.90;;;;;;5037622;28;20221;-82
2022/05/26 02:22:53;;;;;;;5.17;3.67;;;15.00;99.90;;;;;;5037971;28;20177;-82
2022/05/26 02:25:22;;;;;;;5.10;3.63;;;15.00;99.90;;;;;;5037578;28;20177;-83
2022/05/26 02:27:52;;;;;;;4.77;3.63;;;14.90;99.90;;;;;;5037603;28;20181;-81
2022/05/26 02:30:21;;;;;;;6.23;3.60;;;14.90;99.90;;;;;;5038237;28;20198;-81
2022/05/26 02:32:50;;;;;;;4.33;3.33;;;14.90;99.90;;;;;;5037407;28;20178;-82
2022/05/26 02:35:28;;;;;;;5.00;3.70;;;14.90;99.90;;;;;;5037078;28;20263;-80
2022/05/26 02:38:00;;;;;;;7.30;3.87;;;14.90;99.90;;;;;;5037118;28;20690;-82
2022/05/26 02:40:26;;;;;;;8.97;4.20;;;14.90;99.90;;;;;;5037654;28;20304;-82
2022/05/26 02:42:57;;;;;;;8.03;4.30;;;14.90;99.90;;;;;;5037031;28;20202;-84
2022/05/26 02:45:49;;;;;;;5.70;3.57;;;14.80;99.90;;;;;;5036998;28;20208;-83
2022/05/26 02:48:21;;;;;;;5.53;3.73;;;14.90;99.90;;;;;;5037080;28;20276;-81
2022/05/26 02:51:18;;;;;;;5.07;3.60;;;14.90;99.90;;;;;;5037347;28;20284;-82
2022/05/26 02:53:54;;;;;;;6.43;3.70;;;14.90;99.90;;;;;;5037125;28;20197;-82
2022/05/26 02:56:29;;;;;;;4.07;3.10;;;14.90;99.90;;;;;;5037082;28;20201;-82
2022/05/26 02:59:13;;;;;;;5.17;3.83;;;14.80;99.90;;;;;;5037094;28;20177;-81
2022/05/26 03:01:57;;;;;;;8.47;3.63;;;14.80;99.90;;;;;;5035832;28;20201;-82
2022/05/26 03:04:30;;;;;;;4.40;3.83;;;14.80;99.90;;;;;;5036575;28;20567;-82
2022/05/26 03:07:03;;;;;;;7.60;4.00;;;14.80;99.90;;;;;;5036704;28;20554;-82
2022/05/26 03:09:33;;;;;;;4.40;4.00;;;14.80;99.90;;;;;;5036096;28;20173;-82
2022/05/26 03:11:59;;;;;;;5.73;4.00;;;14.80;99.90;;;;;;5036389;28;20198;-81
2022/05/26 03:14:26;;;;;;;6.60;4.20;;;14.80;99.90;;;;;;5037040;28;20177;-82
2022/05/26 03:16:51;;;;;;;4.73;3.83;;;14.80;99.90;;;;;;5037339;28;20302;-82
2022/05/26 03:19:18;;;;;;;8.37;4.57;;;14.70;99.90;;;;;;5038520;28;20271;-82
2022/05/26 03:21:45;;;;;;;4.87;3.67;;;14.70;99.90;;;;;;5038889;28;20554;-83
2022/05/26 03:24:11;;;;;;;7.23;5.03;;;14.70;99.90;;;;;;5039084;28;20561;-83
2022/05/26 03:26:37;;;;;;;13.37;4.60;;;14.70;99.90;;;;;;5037946;28;20766;-83
2022/05/26 03:29:05;;;;;;;7.10;4.37;;;14.70;99.90;;;;;;5037777;28;20219;-84
2022/05/26 03:31:31;;;;;;;6.33;4.60;;;14.70;99.90;;;;;;5037361;28;20210;-84
2022/05/26 03:42:12;;;;;;;8.37;4.63;;;14.70;99.90;;;;;;5039075;28;20301;-82
2022/05/26 03:44:39;;;;;;;7.80;5.30;;;14.60;99.90;;;;;;5037522;28;20177;-85
2022/05/26 03:47:05;;;;;;;7.83;5.37;;;14.60;99.90;;;;;;5037008;28;20681;-83
2022/05/26 03:49:32;;;;;;;10.63;5.47;;;14.60;99.90;;;;;;5038083;28;20186;-84
2022/05/26 03:51:58;;;;;;;8.07;6.07;;;14.50;99.90;;;;;;5036895;28;20248;-84
2022/05/26 03:54:27;;;;;;;11.53;6.10;;;14.60;99.90;;;;;;5037289;28;20189;-83
2022/05/26 03:56:53;;;;;;;12.87;6.60;;;14.60;99.90;;;;;;5034405;28;20697;-82
2022/05/26 03:59:19;;;;;;;12.70;6.27;;;14.60;99.90;;;;;;5034454;28;20174;-83
2022/05/26 04:01:45;;;;;;;12.20;6.30;;;14.60;99.90;;;;;;5034023;28;20216;-82
2022/05/26 04:04:11;;;;;;;11.57;6.33;;;14.60;99.90;;;;;;5034376;28;20174;-82
2022/05/26 04:06:37;;;;;;;10.47;6.20;;;14.70;99.90;;;;;;5033904;28;20320;-82
2022/05/26 04:09:03;;;;;;;13.13;6.93;;;14.60;99.90;;;;;;5033824;28;20646;-83
2022/05/26 04:11:30;;;;;;;13.03;6.70;;;14.50;99.90;;;;;;5033401;28;20189;-81
2022/05/26 04:13:55;;;;;;;10.60;6.83;;;14.50;99.90;;;;;;5034202;28;20173;-82
2022/05/26 04:16:22;;;;;;;14.43;7.17;;;14.60;99.90;;;;;;5032392;28;20263;-82
2022/05/26 04:18:47;;;;;;;12.77;6.93;;;14.60;99.90;;;;;;5032230;28;20170;-82
2022/05/26 04:21:14;;;;;;;12.20;7.10;;;14.50;99.90;;;;;;5031692;28;20260;-82
2022/05/26 04:23:40;;;;;;;16.80;7.77;;;14.60;99.90;;;;;;5032024;28;20166;-82
2022/05/26 04:26:08;;;;;;;13.57;7.33;;;14.60;99.90;;;;;;5033545;28;20711;-83
2022/05/26 04:28:35;;;;;;;13.13;7.10;;;14.60;99.90;;;;;;5032116;28;20185;-82
2022/05/26 04:31:01;;;;;;;13.27;7.53;;;14.60;99.90;;;;;;5031742;28;20300;-82
2022/05/26 04:33:27;;;;;;;12.30;7.33;;;14.60;99.90;;;;;;5031732;28;20265;-82
2022/05/26 04:35:53;;;;;;;13.03;7.57;;;14.60;99.90;;;;;;5031397;28;20188;-83
2022/05/26 04:38:19;;;;;;;14.13;7.47;;;14.60;99.90;;;;;;5031865;28;20197;-82
2022/05/26 04:40:55;;;;;;;13.03;7.30;;;14.70;99.90;;;;;;5031869;28;20231;-82
2022/05/26 04:43:20;;;;;;;12.00;7.30;;;14.70;99.90;;;;;;5031389;28;20180;-82
2022/05/26 04:45:46;;;;;;;17.73;8.43;;;14.70;99.90;;;;;;5031509;28;20170;-81
2022/05/26 04:48:12;;;;;;;19.27;8.33;;;14.70;99.90;;;;;;5031660;28;20646;-83
2022/05/26 04:50:38;;;;;;;14.17;8.70;;;14.70;99.90;;;;;;5031553;28;20256;-83
2022/05/26 04:53:03;;;;;;;17.70;8.77;;;14.70;99.90;;;;;;5031303;28;20267;-82
2022/05/26 04:55:29;;;;;;;16.53;9.30;;;14.70;99.90;;;;;;5031337;28;20177;-82
2022/05/26 04:57:55;;;;;;;16.70;8.77;;;14.70;99.90;;;;;;5031580;28;20213;-82
2022/05/26 05:00:20;;;;;;;16.90;8.87;;;14.80;99.90;;;;;;5030867;28;20186;-81
2022/05/26 05:02:46;;;;;;;16.50;8.80;;;14.80;99.90;;;;;;5031183;28;20180;-82
2022/05/26 05:05:12;;;;;;;21.10;10.13;;;14.90;99.90;;;;;;5031305;28;20439;-82
2022/05/26 05:07:38;;;;;;;19.23;8.47;;;14.90;99.90;;;;;;5031293;28;20224;-82
2022/05/26 05:10:04;;;;;;;18.60;8.97;;;14.90;99.90;;;;;;5030121;28;20239;-83
2022/05/26 05:12:30;;;;;;;21.53;9.90;;;14.90;99.90;;;;;;5030764;28;20174;-82
2022/05/26 05:14:56;;;;;;;21.30;9.57;;;14.90;99.90;;;;;;5031140;28;20181;-82
2022/05/26 05:17:23;;;;;;;15.33;9.00;;;15.00;99.90;;;;;;5030957;28;20704;-82
2022/05/26 05:19:50;;;;;;;20.60;9.43;;;15.00;99.90;;;;;;5031462;28;20515;-82
2022/05/26 05:22:33;;;;;;;19.80;9.23;;;15.10;99.90;;;;;;5031067;28;20292;-82
2022/05/26 05:25:01;;;;;;;22.70;9.83;;;15.20;99.90;;;;;;5031205;28;20228;-82
2022/05/26 05:27:39;;;;;;;17.83;9.17;;;15.40;99.90;;;;;;5031404;28;20170;-81
2022/05/26 05:30:11;;;;;;;20.60;8.97;;;15.40;99.90;;;;;;5031473;28;20205;-81
2022/05/26 05:32:43;;;;;;;21.37;9.73;;;15.40;99.90;;;;;;5031493;28;20585;-81
2022/05/26 05:35:14;;;;;;;17.67;9.17;;;15.60;99.90;;;;;;5030953;28;20664;-82
2022/05/26 05:37:40;;;;;;;15.70;8.57;;;15.80;99.90;;;;;;5031036;28;20201;-81
2022/05/26 05:40:07;;;;;;;18.97;9.20;;;15.80;99.90;;;;;;5031250;28;20265;-81
2022/05/26 05:42:33;;;;;;;18.60;8.57;;;16.00;99.90;;;;;;5030852;28;20169;-82
2022/05/26 05:44:59;;;;;;;20.77;9.20;;;16.10;99.90;;;;;;5031024;28;20261;-82
2022/05/26 05:47:25;;;;;;;21.67;10.40;;;16.20;99.90;;;;;;5032428;28;20174;-82
2022/05/26 05:49:50;;;;;;;20.47;10.07;;;16.30;99.90;;;;;;5030758;28;20176;-81
2022/05/26 05:52:22;;;;;;;17.73;9.33;;;16.40;99.90;;;;;;5030856;28;20193;-81
2022/05/26 05:54:48;;;;;;;17.00;9.20;;;16.50;99.90;;;;;;5030797;28;20231;-81
2022/05/26 05:57:14;;;;;;;23.87;9.37;;;16.20;99.90;;;;;;5030440;28;20213;-81
2022/05/26 05:59:40;;;;;;;17.17;9.63;;;16.10;99.90;;;;;;5030531;28;20167;-82
2022/05/26 06:02:07;;;;;;;18.97;10.03;;;16.00;99.90;;;;;;5029774;28;20190;-83
2022/05/26 06:04:41;;;;;;;26.47;10.03;;;15.90;99.90;;;;;;5031742;28;20170;-81
2022/05/26 06:07:11;;;;;;;22.70;9.53;;;15.90;99.90;;;;;;5031342;28;20180;-82
2022/05/26 06:09:37;;;;;;;21.70;10.57;;;16.00;99.90;;;;;;5031408;28;20517;-82
2022/05/26 06:12:03;;;;;;;21.60;10.17;;;15.90;99.90;;;;;;5030451;28;20245;-81
2022/05/26 06:14:28;;;;;;;22.03;11.07;;;16.00;99.90;;;;;;5031031;28;20175;-82
2022/05/26 06:16:54;;;;;;;18.80;9.73;;;16.00;99.90;;;;;;5031853;28;20248;-82
2022/05/26 06:19:20;;;;;;;25.87;10.40;;;16.20;99.90;;;;;;5032708;28;20208;-82
2022/05/26 06:21:45;;;;;;;22.27;11.23;;;16.30;99.90;;;;;;5032854;28;20190;-82
2022/05/26 06:24:11;;;;;;;19.23;9.43;;;16.20;99.90;;;;;;5035868;28;20175;-82
2022/05/26 06:26:37;;;;;;;19.63;10.40;;;16.20;99.90;;;;;;5036473;28;20181;-81
2022/05/26 06:37:16;;;;;;;20.27;8.93;;;17.20;99.90;;;;;;5037388;28;20263;-83
2022/05/26 06:39:44;;;;;;;18.50;8.87;;;17.20;99.90;;;;;;5037372;28;20209;-82
2022/05/26 06:42:10;;;;;;;22.63;9.03;;;17.20;99.90;;;;;;5036014;28;20190;-82
2022/05/26 06:44:42;;;;;;;18.47;8.57;;;17.40;99.90;;;;;;5035646;28;20662;-82
2022/05/26 06:47:20;;;;;;;22.97;7.73;;;17.60;99.90;;;;;;5035803;28;20162;-81
2022/05/26 06:49:47;;;;;;;17.40;8.70;;;17.70;99.90;;;;;;5035851;28;20206;-82
2022/05/26 06:52:14;;;;;;;20.03;8.73;;;17.60;99.90;;;;;;5035089;28;20259;-82
2022/05/26 06:54:43;;;;;;;17.93;8.40;;;17.50;99.90;;;;;;5035374;28;20697;-82
2022/05/26 06:57:10;;;;;;;17.90;7.53;;;17.80;99.90;;;;;;5035243;28;20197;-82
2022/05/26 06:59:37;;;;;;;14.80;7.53;;;17.60;99.90;;;;;;5035131;28;20166;-82
2022/05/26 07:02:04;;;;;;;14.63;7.90;;;17.40;99.90;;;;;;5034806;28;20572;-82
2022/05/26 07:04:30;;;;;;;13.90;7.77;;;17.10;99.90;;;;;;5035740;28;20170;-81
2022/05/26 07:06:56;;;;;;;16.10;7.73;;;16.90;99.90;;;;;;5035316;28;20170;-83
2022/05/26 07:09:24;;;;;;;18.03;7.23;;;17.00;99.90;;;;;;5055744;23;20174;-77
2022/05/26 07:11:50;;;;;;;20.83;7.93;;;17.20;99.90;;;;;;5026138;28;20215;-77
2022/05/26 07:14:16;;;;;;;22.13;8.00;;;17.00;99.90;;;;;;4995841;28;20167;-77
2022/05/26 07:16:44;;;;;;;15.77;7.30;;;17.00;99.90;;;;;;4995221;28;20207;-78
2022/05/26 07:19:14;;;;;;;16.90;7.77;;;17.20;99.90;;;;;;4995793;28;20167;-78
2022/05/26 07:21:43;;;;;;;15.17;6.83;;;17.10;99.90;;;;;;4995484;28;20191;-77
2022/05/26 07:24:10;;;;;;;12.10;6.80;;;17.20;99.90;;;;;;4994719;28;20179;-79
2022/05/26 07:26:35;;;;;;;16.00;7.30;;;17.30;99.90;;;;;;4995148;28;20636;-78
2022/05/26 07:29:02;;;;;;;14.00;6.63;;;17.40;99.90;;;;;;4995620;28;20202;-80
2022/05/26 07:31:27;;;;;;;12.00;6.40;;;17.40;99.90;;;;;;4995296;28;20279;-79
2022/05/26 07:33:54;;;;;;;20.83;7.03;;;17.40;99.90;;;;;;4994436;28;20191;-78
2022/05/26 07:41:53;;;;;;;16.23;6.97;;;17.80;99.90;;;;;;4996516;28;20321;-79
2022/05/26 07:44:19;;;;;;;18.63;6.40;;;17.90;99.90;;;;;;4995434;28;20214;-79
2022/05/26 07:46:44;;;;;;;13.87;6.30;;;18.00;99.90;;;;;;4994941;28;20183;-80
2022/05/26 07:49:12;;;;;;;11.87;6.77;;;18.30;99.90;;;;;;4994671;28;20179;-79
2022/05/26 07:51:37;;;;;;;16.07;6.23;;;18.40;99.90;;;;;;4994741;28;20206;-77
2022/05/26 07:54:03;;;;;;;11.57;5.47;;;18.20;99.90;;;;;;4995296;28;20270;-79
2022/05/26 07:56:33;;;;;;;11.67;5.80;;;18.60;99.90;;;;;;4994675;28;20202;-78
2022/05/26 07:58:59;;;;;;;11.60;5.43;;;18.60;99.90;;;;;;4994448;28;20175;-78
2022/05/26 08:01:25;;;;;;;14.97;5.73;;;18.50;99.90;;;;;;4994534;28;20476;-78
2022/05/26 08:03:53;;;;;;;16.97;5.63;;;18.70;99.90;;;;;;4995487;28;20579;-78
2022/05/26 08:06:19;;;;;;;15.97;5.70;;;18.80;99.90;;;;;;4994437;28;20183;-76
2022/05/26 08:08:45;;;;;;;12.97;5.93;;;18.80;99.90;;;;;;4995493;28;20168;-77
2022/05/26 08:11:11;;;;;;;16.23;5.00;;;18.80;99.90;;;;;;4993891;28;20214;-78
2022/05/26 08:13:36;;;;;;;16.77;4.67;;;19.00;99.90;;;;;;4994710;28;20185;-79
2022/05/26 08:16:06;;;;;;;11.85;4.22;;;19.10;99.90;;;;;;4993589;28;20179;-78
2022/05/26 08:18:33;;;;;;;17.17;5.22;;;18.70;99.90;;;;;;4994234;28;20592;-80
2022/05/26 08:21:10;;;;;;;10.43;4.50;;;18.90;99.90;;;;;;5026442;28;20195;-77
2022/05/26 08:23:36;;;;;;;9.70;4.38;;;19.20;99.90;;;;;;4994308;28;20175;-79
2022/05/26 08:26:02;;;;;;;9.52;3.80;;;19.50;99.90;;;;;;4993974;28;20711;-76
2022/05/26 08:28:28;;;;;;;12.43;5.18;;;19.20;99.90;;;;;;4994419;28;20176;-79
2022/05/26 08:30:54;;;;;;;11.27;3.53;;;19.50;99.90;;;;;;4993717;28;20191;-81
2022/05/26 08:33:19;;;;;;;13.20;3.72;;;19.40;99.90;;;;;;4995238;28;20186;-80
2022/05/26 08:35:45;;;;;;;7.75;3.45;;;19.20;99.90;;;;;;4993567;28;20182;-78
2022/05/26 08:38:11;;;;;;;10.18;3.80;;;18.90;99.90;;;;;;4994737;28;20187;-80
2022/05/26 08:40:41;;;;;;;8.85;3.05;;;19.20;99.90;;;;;;4994224;28;20649;-79
2022/05/26 08:43:21;;;;;;;13.23;3.57;;;19.10;99.90;;;;;;4994026;28;20175;-77
2022/05/26 08:45:52;;;;;;;10.18;3.63;;;18.90;99.90;;;;;;4994238;28;20175;-79
2022/05/26 08:48:50;;;;;;;8.50;3.30;;;18.40;99.90;;;;;;4994068;28;20644;-78
2022/05/26 08:51:28;;;;;;;9.50;3.60;;;18.20;99.90;;;;;;4995681;28;20565;-77
2022/05/26 08:53:57;;;;;;;12.43;3.60;;;18.00;99.90;;;;;;4993342;28;20179;-77
2022/05/26 08:56:26;;;;;;;12.33;3.50;;;17.70;99.90;;;;;;4993450;28;20342;-79
2022/05/26 08:58:58;;;;;;;8.60;3.33;;;17.80;99.90;;;;;;4995279;28;20179;-78
2022/05/26 09:01:28;;;;;;;11.33;3.87;;;17.80;99.90;;;;;;4993243;28;20191;-77
2022/05/26 09:03:53;;;;;;;11.50;3.77;;;18.10;99.90;;;;;;4993836;28;20207;-79
2022/05/26 09:06:21;;;;;;;10.10;3.80;;;18.20;99.90;;;;;;4993755;28;20257;-78
2022/05/26 09:14:03;;;;;;;12.13;3.30;;;18.50;99.90;;;;;;4995586;28;20176;-78
2022/05/26 09:16:32;;;;;;;10.70;3.57;;;18.70;99.90;;;;;;4993624;28;20233;-78
2022/05/26 09:19:15;;;;;;;12.03;3.63;;;18.40;99.90;;;;;;4993468;28;20624;-80
2022/05/26 09:21:43;;;;;;;14.43;3.67;;;18.50;99.90;;;;;;4993294;28;20686;-81
2022/05/26 09:24:19;;;;;;;9.67;3.20;;;19.20;99.90;;;;;;4993101;28;20191;-77
2022/05/26 09:27:12;;;;;;;12.00;3.73;;;20.00;99.90;;;;;;4993006;28;20174;-78
2022/05/26 09:29:38;;;;;;;11.83;2.87;;;19.50;99.90;;;;;;4963528;28;20190;-79
2022/05/26 09:32:06;;;;;;;6.90;2.90;;;18.80;99.90;;;;;;4992747;28;20293;-80
2022/05/26 09:34:34;;;;;;;11.98;2.70;;;19.50;99.90;;;;;;4992949;28;20175;-79
2022/05/26 09:37:03;;;;;;;6.65;2.90;;;20.10;99.90;;;;;;4992794;28;20210;-79
2022/05/26 09:39:42;;;;;;;8.77;2.90;;;20.50;99.90;;;;;;4992842;28;20183;-80
2022/05/26 09:42:17;;;;;;;9.05;2.40;;;21.20;99.90;;;;;;4992667;28;20659;-79
2022/05/26 09:44:57;;;;;;;6.85;2.80;;;21.20;99.90;;;;;;4993812;28;20166;-79
2022/05/26 09:47:46;;;;;;;8.20;2.58;;;21.20;99.90;;;;;;4993551;28;20226;-80
2022/05/26 09:50:37;;;;;;;7.03;2.15;;;20.80;99.90;;;;;;4993173;28;20271;-80
2022/05/26 09:53:08;;;;;;;9.15;2.40;;;20.80;99.90;;;;;;4994135;28;20226;-79
2022/05/26 09:55:49;;;;;;;6.03;2.15;;;20.50;99.90;;;;;;4992269;28;20175;-80
2022/05/26 09:58:37;;;;;;;8.13;2.78;;;21.00;99.90;;;;;;4996234;28;20175;-78
2022/05/26 10:01:21;;;;;;;7.18;2.30;;;20.70;99.90;;;;;;4995826;28;20207;-79
2022/05/26 10:04:12;;;;;;;7.03;2.00;;;20.70;99.90;;;;;;4996263;28;20175;-78
2022/05/26 10:06:44;;;;;;;6.38;2.42;;;20.20;99.90;;;;;;4996438;28;20171;-79
2022/05/26 10:09:44;;;;;;;8.75;2.22;;;20.00;99.90;;;;;;4995928;28;20175;-78
2022/05/26 10:12:36;;;;;;;7.28;2.30;;;20.60;99.90;;;;;;4995895;28;20543;-79
2022/05/26 10:15:02;;;;;;;5.28;1.90;;;20.90;99.90;;;;;;4996157;28;20225;-79
2022/05/26 10:17:39;;;;;;;6.97;2.28;;;21.10;99.90;;;;;;4996081;28;20195;-79
2022/05/26 10:20:54;;;;;;;4.43;2.00;;;21.60;99.90;;;;;;4995945;28;20167;-79
2022/05/26 10:23:44;;;;;;;5.30;2.00;;;20.70;99.90;;;;;;4987026;28;20191;-79
2022/05/26 10:26:46;;;;;;;10.38;2.40;;;19.90;99.90;;;;;;4996505;28;20167;-78
2022/05/26 10:29:14;;;;;;;6.90;2.50;;;19.60;99.90;;;;;;4996265;28;20167;-78
2022/05/26 10:32:32;;;;;;;7.90;2.15;;;19.60;99.90;;;;;;4996214;28;20195;-79
2022/05/26 10:35:04;;;;;;;7.28;2.67;;;20.80;99.90;;;;;;4972936;28;20183;-78
2022/05/26 10:38:04;;;;;;;8.07;2.50;;;21.80;99.90;;;;;;4995889;28;20211;-77
2022/05/26 10:40:57;;;;;;;7.28;3.00;;;21.00;99.90;;;;;;4996007;28;20230;-76
2022/05/26 10:43:45;;;;;;;6.60;2.50;;;20.60;99.90;;;;;;4995694;28;20172;-78
2022/05/26 10:46:12;;;;;;;8.70;2.47;;;20.20;99.90;;;;;;4995686;28;20187;-78
2022/05/26 10:48:57;;;;;;;12.20;2.53;;;19.70;99.90;;;;;;4995398;28;20252;-78
2022/05/26 10:51:34;;;;;;;7.47;2.47;;;19.20;99.90;;;;;;4995494;28;20294;-78
2022/05/26 10:54:26;;;;;;;7.78;2.97;;;19.00;99.90;;;;;;4995471;28;20179;-78
2022/05/26 10:57:10;;;;;;;8.05;2.40;;;18.80;99.90;;;;;;4995826;28;20812;-78
2022/05/26 10:59:37;;;;;;;9.43;2.50;;;18.90;99.90;;;;;;4995691;28;20172;-79
2022/05/26 11:02:29;;;;;;;7.45;2.88;;;19.40;99.90;;;;;;4995258;28;20191;-78
2022/05/26 11:05:04;;;;;;;15.27;2.70;;;20.50;99.90;;;;;;4995563;28;20168;-78
2022/05/26 11:07:33;;;;;;;7.45;2.55;;;21.40;99.90;;;;;;4996262;28;20171;-79
2022/05/26 11:10:09;;;;;;;6.63;2.40;;;20.70;99.90;;;;;;4994149;28;20199;-79
2022/05/26 11:12:42;;;;;;;7.63;2.33;;;20.40;99.90;;;;;;4995398;28;20190;-79
2022/05/26 11:18:28;;;;;;;7.80;2.80;;;21.10;99.90;;;;;;4996749;28;20198;-80
2022/05/26 11:20:57;;;;;;;6.75;2.58;;;20.70;99.90;;;;;;4995313;28;20286;-78
2022/05/26 11:23:25;;;;;;;5.53;2.15;;;20.20;99.90;;;;;;4995314;28;20183;-78
2022/05/26 11:26:22;;;;;;;6.50;2.35;;;19.50;99.90;;;;;;4995766;28;20274;-77
2022/05/26 11:28:56;;;;;;;9.32;2.60;;;19.20;99.90;;;;;;4953314;28;20274;-79
2022/05/26 11:37:39;;;;;;;9.93;2.63;;;18.80;99.90;;;;;;4995889;28;20264;-78
2022/05/26 11:40:08;;;;;;;6.63;2.30;;;18.70;99.90;;;;;;4995101;28;20191;-78
2022/05/26 11:42:39;;;;;;;6.13;2.30;;;18.70;99.90;;;;;;4994513;28;20210;-78
2022/05/26 11:45:08;;;;;;;7.03;2.53;;;18.50;99.90;;;;;;4994491;28;20616;-78
2022/05/26 11:47:59;;;;;;;8.47;2.50;;;18.40;99.90;;;;;;4994660;28;20612;-79
2022/05/26 11:50:43;;;;;;;9.57;2.60;;;18.50;99.90;;;;;;4994576;28;20199;-77
2022/05/26 11:53:27;;;;;;;6.00;2.47;;;18.80;99.90;;;;;;4994296;28;20183;-78
2022/05/26 11:55:58;;;;;;;10.07;2.70;;;19.60;99.90;;;;;;4994304;28;20176;-79
2022/05/26 11:58:46;;;;;;;7.50;2.67;;;20.00;99.90;;;;;;4994364;28;20237;-78
2022/05/26 12:01:14;;;;;;;7.60;2.45;;;20.30;99.90;;;;;;4994366;28;20196;-78
2022/05/26 12:03:53;;;;;;;9.68;3.30;;;20.30;99.90;;;;;;4993703;28;20175;-78
2022/05/26 12:06:33;;;;;;;7.53;3.03;;;19.60;99.90;;;;;;4993945;28;20670;-78
2022/05/26 12:09:03;;;;;;;13.48;3.50;;;19.10;99.90;;;;;;4993471;28;20321;-79
2022/05/26 12:11:53;;;;;;;8.17;3.20;;;19.00;99.90;;;;;;4993075;28;20618;-78
2022/05/26 12:14:33;;;;;;;9.63;3.93;;;19.50;99.90;;;;;;4994111;28;20595;-79
2022/05/26 12:17:26;;;;;;;10.77;3.40;;;20.10;99.90;;;;;;4993896;28;20206;-77
2022/05/26 12:19:52;;;;;;;11.68;3.60;;;20.60;99.90;;;;;;4993203;28;20230;-78
2022/05/26 12:22:36;;;;;;;7.07;3.10;;;20.90;99.90;;;;;;4993115;28;20195;-78
2022/05/26 12:25:08;;;;;;;6.32;3.03;;;20.60;99.90;;;;;;4993825;28;20644;-79
2022/05/26 12:28:05;;;;;;;7.85;3.10;;;20.70;99.90;;;;;;4995488;28;20628;-79
2022/05/26 12:30:43;;;;;;;9.10;3.05;;;21.20;99.90;;;;;;4993835;28;20674;-79
2022/05/26 12:33:15;;;;;;;6.50;2.65;;;21.20;99.90;;;;;;4993586;28;20225;-79
2022/05/26 12:36:09;;;;;;;7.68;2.80;;;21.50;99.90;;;;;;4993209;28;20183;-77
2022/05/26 12:38:53;;;;;;;13.75;2.88;;;20.80;99.90;;;;;;4982709;28;20201;-79
2022/05/26 12:41:47;;;;;;;7.28;2.90;;;20.40;99.90;;;;;;4992801;28;20199;-78
2022/05/26 12:44:27;;;;;;;7.93;3.03;;;20.40;99.90;;;;;;4993025;28;20182;-78
2022/05/26 12:47:17;;;;;;;9.40;4.07;;;20.40;99.90;;;;;;4992610;28;20264;-79
2022/05/26 12:50:01;;;;;;;7.38;3.80;;;20.70;99.90;;;;;;4992740;28;20354;-78
2022/05/26 12:52:32;;;;;;;8.02;4.38;;;21.00;99.90;;;;;;4992317;28;20589;-78
2022/05/26 12:55:20;;;;;;;10.55;4.47;;;21.00;99.90;;;;;;4992478;28;20171;-79
2022/05/26 12:58:12;;;;;;;9.15;4.80;;;20.60;99.90;;;;;;4992868;28;20199;-78
2022/05/26 13:00:43;;;;;;;15.48;4.22;;;20.10;99.90;;;;;;4976517;28;20341;-77
2022/05/26 13:03:32;;;;;;;6.25;3.20;;;19.90;99.90;;;;;;4992841;28;20173;-79
2022/05/26 13:06:07;;;;;;;9.60;3.65;;;20.10;99.90;;;;;;4992361;28;20636;-79
2022/05/26 13:08:44;;;;;;;6.63;2.92;;;20.30;99.90;;;;;;4992992;28;20233;-79
2022/05/26 13:11:14;;;;;;;7.68;2.78;;;20.80;99.90;;;;;;5003573;23;20234;-78
2022/05/26 13:13:56;;;;;;;5.53;2.35;;;21.20;99.90;;;;;;4993753;28;20283;-78
2022/05/26 13:16:26;;;;;;;5.10;2.50;;;21.30;98.80;;;;;;5025175;28;20202;-78
2022/05/26 13:18:56;;;;;;;7.40;2.90;;;21.20;99.00;;;;;;4993150;28;20179;-78
2022/05/26 13:21:28;;;;;;;8.00;2.53;;;21.20;98.40;;;;;;4992931;28;20172;-77
2022/05/26 13:23:54;;;;;;;6.28;2.28;;;21.20;98.70;;;;;;5030681;23;20226;-82
2022/05/26 13:26:21;;;;;;;5.40;2.70;;;21.00;99.60;;;;;;5017017;28;20516;-81
2022/05/26 13:28:54;;;;;;;9.02;3.80;;;21.10;99.30;;;;;;5015484;28;20195;-82
2022/05/26 13:34:07;;;;;;;8.98;4.28;;;20.80;99.80;;;;;;5016502;28;20505;-82
2022/05/26 13:36:39;;;;;;;14.82;5.05;;;21.10;99.50;;;;;;5016102;28;20198;-81
2022/05/26 13:39:14;;;;;;;10.88;5.07;;;20.80;98.50;;;;;;5017066;28;20570;-81
2022/05/26 13:41:45;;;;;;;7.70;5.03;;;20.80;98.90;;;;;;5014656;28;20201;-81
2022/05/26 13:44:35;;;;;;;7.05;4.70;;;20.50;99.30;;;;;;5015619;28;20166;-81
2022/05/26 13:47:04;;;;;;;10.05;4.68;;;20.40;98.50;;;;;;5015751;28;20515;-81
2022/05/26 13:49:37;;;;;;;7.25;4.50;;;20.30;99.00;;;;;;5017241;28;20760;-82
2022/05/26 13:52:14;;;;;;;9.77;4.32;;;20.10;98.90;;;;;;5016190;28;20702;-81